createdAt,value
2023-05-04T00:00:18.135Z,17.25
2023-05-04T00:02:49.425Z,17.07
2023-05-04T00:05:20.343Z,16.92
2023-05-04T00:07:52.946Z,16.81
2023-05-04T00:10:24.293Z,16.84
2023-05-04T00:12:55.372Z,17.05
2023-05-04T00:15:29.174Z,17.42
2023-05-04T00:18:00.629Z,17.60
2023-05-04T00:20:32.297Z,17.78
2023-05-04T00:23:03.365Z,17.92
2023-05-04T00:25:34.396Z,18.13
2023-05-04T00:28:05.355Z,18.11
2023-05-04T00:30:38.327Z,18.04
2023-05-04T00:33:09.480Z,18.37
2023-05-04T00:35:42.945Z,18.81
2023-05-04T00:38:14.375Z,19.02
2023-05-04T00:40:45.314Z,19.06
2023-05-04T00:43:16.252Z,19.15
2023-05-04T00:45:49.138Z,19.52
2023-05-04T00:48:20.493Z,19.73
2023-05-04T00:50:51.591Z,19.93
2023-05-04T00:53:22.560Z,19.96
2023-05-04T00:55:53.650Z,19.91
2023-05-04T00:58:25.439Z,19.71
2023-05-04T01:00:58.202Z,19.87
2023-05-04T01:03:30.415Z,19.89
2023-05-04T01:06:11.089Z,20.07
2023-05-04T01:08:48.547Z,20.04
2023-05-04T01:11:23.484Z,20.00
2023-05-04T01:13:55.714Z,19.73
2023-05-04T01:16:28.313Z,19.80
2023-05-04T01:19:02.734Z,19.73
2023-05-04T01:21:37.873Z,19.75
2023-05-04T01:24:15.039Z,19.86
2023-05-04T01:26:51.779Z,20.06
2023-05-04T01:29:28.664Z,20.21
2023-05-04T01:32:00.588Z,20.33
2023-05-04T01:34:31.793Z,20.52
2023-05-04T01:37:05.354Z,20.56
2023-05-04T01:39:36.704Z,20.68
2023-05-04T01:42:08.436Z,20.95
2023-05-04T01:44:39.846Z,21.09
2023-05-04T01:47:10.975Z,21.14
2023-05-04T01:49:42.320Z,21.10
2023-05-04T01:52:15.066Z,21.13
2023-05-04T01:54:46.083Z,21.22
2023-05-04T01:57:16.686Z,21.18
2023-05-04T01:59:47.269Z,21.03
2023-05-04T02:02:20.744Z,20.97
2023-05-04T02:04:51.287Z,20.95
2023-05-04T02:07:23.553Z,20.90
2023-05-04T02:09:54.112Z,21.02
2023-05-04T02:12:24.557Z,21.14
2023-05-04T02:14:55.100Z,21.09
2023-05-04T02:17:25.620Z,21.08
2023-05-04T02:19:56.139Z,21.08
2023-05-04T02:22:28.356Z,20.95
2023-05-04T02:24:58.902Z,20.96
2023-05-04T02:27:29.743Z,21.09
2023-05-04T02:30:00.496Z,21.20
2023-05-04T02:32:31.677Z,21.19
2023-05-04T02:35:02.496Z,21.47
2023-05-04T02:37:34.722Z,21.68
2023-05-04T02:40:05.652Z,21.63
2023-05-04T02:42:36.373Z,21.50
2023-05-04T02:45:08.288Z,21.33
2023-05-04T02:47:38.922Z,21.15
2023-05-04T02:50:10.679Z,20.87
2023-05-04T02:52:42.846Z,20.62
2023-05-04T02:55:13.810Z,20.15
2023-05-04T02:57:44.324Z,20.15
2023-05-04T03:00:15.923Z,20.05
2023-05-04T03:02:46.527Z,19.87
2023-05-04T03:05:17.051Z,19.61
2023-05-04T03:07:49.138Z,19.39
2023-05-04T03:10:19.837Z,19.21
2023-05-04T03:12:50.416Z,18.98
2023-05-04T03:15:21.211Z,18.88
2023-05-04T03:17:51.863Z,18.79
2023-05-04T03:20:22.593Z,18.74
2023-05-04T03:22:57.919Z,18.68
2023-05-04T03:25:28.626Z,18.64
2023-05-04T03:27:59.215Z,18.62
2023-05-04T03:30:30.001Z,18.65
2023-05-04T03:33:00.627Z,18.63
2023-05-04T03:35:33.804Z,18.73
2023-05-04T03:38:07.463Z,18.78
2023-05-04T03:40:37.979Z,18.80
2023-05-04T03:43:08.491Z,18.74
2023-05-04T03:45:39.611Z,18.66
2023-05-04T03:48:10.213Z,18.35
2023-05-04T03:50:40.894Z,18.51
2023-05-04T03:53:13.060Z,18.48
2023-05-04T03:55:43.612Z,18.44
2023-05-04T03:58:14.062Z,18.42
2023-05-04T04:00:44.727Z,18.41
2023-05-04T04:03:15.380Z,18.21
2023-05-04T04:05:46.050Z,18.33
2023-05-04T04:08:18.333Z,18.29
2023-05-04T04:10:48.812Z,18.28
2023-05-04T04:13:21.194Z,17.92
2023-05-04T04:15:51.863Z,18.33
2023-05-04T04:18:22.499Z,18.47
2023-05-04T04:20:53.771Z,18.70
2023-05-04T04:23:26.796Z,19.08
2023-05-04T04:25:57.256Z,19.60
2023-05-04T04:28:27.763Z,20.16
2023-05-04T04:30:58.327Z,20.66
2023-05-04T04:33:28.875Z,21.00
2023-05-04T04:35:59.350Z,21.38
2023-05-04T04:38:31.490Z,21.82
2023-05-04T04:41:02.001Z,21.93
2023-05-04T04:43:36.244Z,21.97
2023-05-04T04:46:06.813Z,22.03
2023-05-04T04:48:37.549Z,21.98
2023-05-04T04:51:13.530Z,21.94
2023-05-04T04:53:45.687Z,21.86
2023-05-04T04:56:16.281Z,22.09
2023-05-04T04:58:46.967Z,22.29
2023-05-04T05:01:18.766Z,22.33
2023-05-04T05:03:54.178Z,22.47
2023-05-04T05:06:24.779Z,22.53
2023-05-04T05:08:57.051Z,22.47
2023-05-04T05:11:27.564Z,22.56
2023-05-04T05:13:58.044Z,22.66
2023-05-04T05:16:28.665Z,22.82
2023-05-04T05:18:59.186Z,22.90
2023-05-04T05:21:29.576Z,23.08
2023-05-04T05:24:02.583Z,23.01
2023-05-04T05:26:33.412Z,23.12
2023-05-04T05:29:03.894Z,23.23
2023-05-04T05:31:34.493Z,23.08
2023-05-04T05:34:07.838Z,22.99
2023-05-04T05:36:42.448Z,22.95
2023-05-04T05:39:16.292Z,23.09
2023-05-04T05:41:48.020Z,23.02
2023-05-04T05:44:21.254Z,22.70
2023-05-04T05:46:56.871Z,22.64
2023-05-04T05:49:28.952Z,22.44
2023-05-04T05:52:00.610Z,22.23
2023-05-04T05:54:34.287Z,21.63
2023-05-04T05:57:06.053Z,21.93
2023-05-04T05:59:37.633Z,21.91
2023-05-04T06:02:12.563Z,21.82
2023-05-04T06:04:43.486Z,21.67
2023-05-04T06:07:16.913Z,21.44
2023-05-04T06:09:49.961Z,21.20
2023-05-04T06:12:23.288Z,21.11
2023-05-04T06:14:54.805Z,20.94
2023-05-04T06:17:25.597Z,20.76
2023-05-04T06:19:56.060Z,20.71
2023-05-04T06:22:26.478Z,20.74
2023-05-04T06:25:02.850Z,20.74
2023-05-04T06:27:37.194Z,20.61
2023-05-04T06:30:09.071Z,20.60
2023-05-04T06:32:39.802Z,20.50
2023-05-04T06:35:12.653Z,20.42
2023-05-04T06:37:43.092Z,20.36
2023-05-04T06:40:16.249Z,20.25
2023-05-04T06:42:46.722Z,20.18
2023-05-04T06:45:17.381Z,20.12
2023-05-04T06:47:48.114Z,20.05
2023-05-04T06:50:18.778Z,19.79
2023-05-04T06:52:49.310Z,19.89
2023-05-04T06:55:21.557Z,19.78
2023-05-04T06:57:53.656Z,19.66
2023-05-04T07:00:25.043Z,19.59
2023-05-04T07:02:56.239Z,19.44
2023-05-04T07:05:26.917Z,19.34
2023-05-04T07:07:57.291Z,19.24
2023-05-04T07:10:29.431Z,19.17
2023-05-04T07:12:59.887Z,19.07
2023-05-04T07:15:30.314Z,18.98
2023-05-04T07:18:00.807Z,18.88
2023-05-04T07:20:31.441Z,18.80
2023-05-04T07:23:01.889Z,18.74
2023-05-04T07:25:34.873Z,18.62
2023-05-04T07:28:05.619Z,18.60
2023-05-04T07:30:36.117Z,18.53
2023-05-04T07:33:07.100Z,18.40
2023-05-04T07:35:37.614Z,18.36
2023-05-04T07:38:09.219Z,18.31
2023-05-04T07:40:41.512Z,18.17
2023-05-04T07:43:11.940Z,18.12
2023-05-04T07:45:42.417Z,17.99
2023-05-04T07:48:13.645Z,17.84
2023-05-04T07:50:44.774Z,17.50
2023-05-04T07:53:15.491Z,17.03
2023-05-04T07:55:47.582Z,16.72
2023-05-04T07:58:17.961Z,16.41
2023-05-04T08:00:48.345Z,16.20
2023-05-04T08:03:19.058Z,16.08
2023-05-04T08:05:49.485Z,16.02
2023-05-04T08:08:20.908Z,16.01
2023-05-04T08:10:54.156Z,15.92
2023-05-04T08:13:26.665Z,15.82
2023-05-04T08:15:58.485Z,15.68
2023-05-04T08:18:29.153Z,15.53
2023-05-04T08:20:59.541Z,15.48
2023-05-04T08:23:31.081Z,15.28
2023-05-04T08:26:04.767Z,15.08
2023-05-04T08:28:40.173Z,14.89
2023-05-04T08:31:10.695Z,14.74
2023-05-04T08:33:41.357Z,14.53
2023-05-04T08:36:11.867Z,14.44
2023-05-04T08:38:42.358Z,14.33
2023-05-04T08:41:14.393Z,14.11
2023-05-04T08:43:50.953Z,13.96
2023-05-04T08:46:21.383Z,13.78
2023-05-04T08:48:52.468Z,13.69
2023-05-04T08:51:23.775Z,13.63
2023-05-04T08:54:01.868Z,13.52
2023-05-04T08:56:34.269Z,13.58
2023-05-04T08:59:04.958Z,13.57
2023-05-04T09:01:37.713Z,13.50
2023-05-04T09:04:10.385Z,13.46
2023-05-04T09:06:42.961Z,13.48
2023-05-04T09:09:14.882Z,13.56
2023-05-04T09:11:47.295Z,13.61
2023-05-04T09:14:18.254Z,13.56
2023-05-04T09:16:48.902Z,13.53
2023-05-04T09:19:23.295Z,13.54
2023-05-04T09:21:55.947Z,13.44
2023-05-04T09:24:30.032Z,13.37
2023-05-04T09:27:14.041Z,13.26
2023-05-04T09:29:45.053Z,13.23
2023-05-04T09:32:16.830Z,13.12
2023-05-04T09:34:52.330Z,13.07
2023-05-04T09:37:23.416Z,12.83
2023-05-04T09:39:57.858Z,13.08
2023-05-04T09:42:30.680Z,13.02
2023-05-04T09:45:06.275Z,12.93
2023-05-04T09:47:38.389Z,12.88
2023-05-04T09:50:21.073Z,12.83
2023-05-04T09:52:52.791Z,12.55
2023-05-04T09:55:23.864Z,12.66
2023-05-04T09:58:00.713Z,12.57
2023-05-04T10:00:33.177Z,12.46
2023-05-04T10:03:08.628Z,12.47
2023-05-04T10:05:42.519Z,12.47
2023-05-04T10:08:15.640Z,12.52
2023-05-04T10:10:46.936Z,12.56
2023-05-04T10:13:21.329Z,12.44
2023-05-04T10:16:15.524Z,12.30
2023-05-04T10:19:04.759Z,12.21
2023-05-04T10:21:52.355Z,12.10
2023-05-04T10:24:42.185Z,11.92
2023-05-04T10:27:17.541Z,12.07
2023-05-04T10:29:57.361Z,12.03
2023-05-04T10:32:27.971Z,11.61
2023-05-04T10:35:10.887Z,11.98
2023-05-04T10:37:42.234Z,11.79
2023-05-04T10:40:13.312Z,11.81
2023-05-04T10:42:48.738Z,11.76
2023-05-04T10:45:24.064Z,11.71
2023-05-04T10:48:00.704Z,11.67
2023-05-04T10:50:31.315Z,11.61
2023-05-04T10:53:01.816Z,11.57
2023-05-04T10:55:45.782Z,11.52
2023-05-04T10:58:20.125Z,11.48
2023-05-04T11:00:53.176Z,11.33
2023-05-04T11:03:25.669Z,11.30
2023-05-04T11:05:56.550Z,11.35
2023-05-04T11:08:30.422Z,11.37
2023-05-04T11:11:05.281Z,11.42
2023-05-04T11:13:38.661Z,11.23
2023-05-04T11:16:15.011Z,11.22
2023-05-04T11:18:59.400Z,11.34
2023-05-04T11:21:30.293Z,11.42
2023-05-04T11:24:01.290Z,11.48
2023-05-04T11:26:31.764Z,11.48
2023-05-04T11:29:02.197Z,11.39
2023-05-04T11:31:34.334Z,11.35
2023-05-04T11:34:06.974Z,11.26
2023-05-04T11:36:42.257Z,11.17
2023-05-04T11:39:12.865Z,11.05
2023-05-04T11:41:45.326Z,10.98
2023-05-04T11:44:17.092Z,10.99
2023-05-04T11:46:52.448Z,11.04
2023-05-04T11:49:23.600Z,11.15
2023-05-04T11:51:54.224Z,11.22
2023-05-04T11:54:27.903Z,11.22
2023-05-04T11:56:59.609Z,11.20
2023-05-04T11:59:30.356Z,11.13
2023-05-04T12:02:02.583Z,10.97
2023-05-04T12:04:35.899Z,10.68
2023-05-04T12:07:10.618Z,10.47
2023-05-04T12:09:48.776Z,10.49
2023-05-04T12:12:19.927Z,10.53
2023-05-04T12:14:51.409Z,10.48
2023-05-04T12:17:24.902Z,10.49
2023-05-04T12:19:59.764Z,10.41
2023-05-04T12:22:33.662Z,10.36
2023-05-04T12:25:04.622Z,10.29
2023-05-04T12:27:35.503Z,10.32
2023-05-04T12:30:06.183Z,10.31
2023-05-04T12:32:38.469Z,10.32
2023-05-04T12:35:10.446Z,10.27
2023-05-04T12:37:41.053Z,10.40
2023-05-04T12:40:25.215Z,10.44
2023-05-04T12:42:58.842Z,10.38
2023-05-04T12:45:30.328Z,10.30
2023-05-04T12:48:02.645Z,10.21
2023-05-04T12:50:34.403Z,10.20
2023-05-04T12:53:05.680Z,10.15
2023-05-04T12:55:36.288Z,9.98
2023-05-04T12:58:10.421Z,9.83
2023-05-04T13:00:42.570Z,9.66
2023-05-04T13:03:19.270Z,9.85
2023-05-04T13:05:50.841Z,9.82
2023-05-04T13:08:22.405Z,9.71
2023-05-04T13:10:53.408Z,9.64
2023-05-04T13:13:30.062Z,9.52
2023-05-04T13:16:00.752Z,9.37
2023-05-04T13:18:33.018Z,9.21
2023-05-04T13:21:03.644Z,9.10
2023-05-04T13:23:37.396Z,9.04
2023-05-04T13:26:11.050Z,8.92
2023-05-04T13:28:41.675Z,8.69
2023-05-04T13:31:12.660Z,8.38
2023-05-04T13:33:51.290Z,8.32
2023-05-04T13:36:21.739Z,8.30
2023-05-04T13:38:54.463Z,8.31
2023-05-04T13:41:25.418Z,8.00
2023-05-04T13:43:56.856Z,8.17
2023-05-04T13:46:27.561Z,8.01
2023-05-04T13:48:59.828Z,7.87
2023-05-04T13:51:30.368Z,7.74
2023-05-04T13:54:02.549Z,7.61
2023-05-04T13:56:33.509Z,7.56
2023-05-04T13:59:04.106Z,7.47
2023-05-04T14:01:34.889Z,7.40
2023-05-04T14:04:07.397Z,7.28
2023-05-04T14:06:38.022Z,7.18
2023-05-04T14:09:08.585Z,7.09
2023-05-04T14:11:39.583Z,6.69
2023-05-04T14:14:12.178Z,6.25
2023-05-04T14:16:42.880Z,5.99
2023-05-04T14:19:15.381Z,5.55
2023-05-04T14:21:46.007Z,5.36
2023-05-04T14:24:16.583Z,5.13
2023-05-04T14:26:47.119Z,4.95
2023-05-04T14:29:17.665Z,4.76
2023-05-04T14:31:48.355Z,4.64
2023-05-04T14:34:20.583Z,4.58
2023-05-04T14:36:52.932Z,4.48
2023-05-04T14:39:31.744Z,4.40
2023-05-04T14:42:10.934Z,4.33
2023-05-04T14:44:50.184Z,4.38
2023-05-04T14:47:28.820Z,4.35
2023-05-04T14:53:23.747Z,4.06
2023-05-04T14:56:11.476Z,3.94
2023-05-04T14:59:02.647Z,3.92
2023-05-04T15:01:52.848Z,3.88
2023-05-04T15:04:23.896Z,3.87
2023-05-04T15:06:56.526Z,3.83
2023-05-04T15:09:27.463Z,3.73
2023-05-04T15:11:58.992Z,3.79
2023-05-04T15:14:31.825Z,3.77
2023-05-04T15:17:03.301Z,3.75
2023-05-04T15:19:34.301Z,3.78
2023-05-04T15:22:07.498Z,3.79
2023-05-04T15:24:38.556Z,3.79
2023-05-04T15:27:10.201Z,3.80
2023-05-04T15:29:41.541Z,3.85
2023-05-04T15:32:14.442Z,3.82
2023-05-04T15:34:50.722Z,3.74
2023-05-04T15:37:31.893Z,3.36
2023-05-04T15:40:03.130Z,3.54
2023-05-04T15:42:34.600Z,3.47
2023-05-04T15:45:06.913Z,3.50
2023-05-04T15:47:39.463Z,3.54
2023-05-04T15:50:11.251Z,3.56
2023-05-04T15:52:49.698Z,3.54
2023-05-04T15:55:25.928Z,3.62
2023-05-04T15:57:57.858Z,3.70
2023-05-04T16:00:29.173Z,3.69
2023-05-04T16:03:00.397Z,3.71
2023-05-04T16:05:32.254Z,3.66
2023-05-04T16:08:04.987Z,3.63
2023-05-04T16:10:38.178Z,3.53
2023-05-04T16:13:11.379Z,3.40
2023-05-04T16:15:43.631Z,3.32
2023-05-04T16:18:14.568Z,3.48
2023-05-04T16:20:45.736Z,3.58
2023-05-04T16:23:20.540Z,3.77
2023-05-04T16:25:54.005Z,3.77
2023-05-04T16:28:24.850Z,3.78
2023-05-04T16:30:55.951Z,3.79
2023-05-04T16:33:27.815Z,3.78
2023-05-04T16:35:59.802Z,3.87
2023-05-04T16:38:33.475Z,3.82
2023-05-04T16:41:06.888Z,3.88
2023-05-04T16:43:37.445Z,3.74
2023-05-04T16:46:08.109Z,3.84
2023-05-04T16:48:40.925Z,3.80
2023-05-04T16:51:16.254Z,3.81
2023-05-04T16:53:48.426Z,3.71
2023-05-04T16:56:20.518Z,3.79
2023-05-04T16:58:53.030Z,3.84
2023-05-04T17:01:23.557Z,3.89
2023-05-04T17:03:54.706Z,3.93
2023-05-04T17:06:25.361Z,3.80
2023-05-04T17:09:02.799Z,3.62
2023-05-04T17:11:34.358Z,3.55
2023-05-04T17:14:07.669Z,3.60
2023-05-04T17:16:43.995Z,3.45
2023-05-04T17:19:17.096Z,3.52
2023-05-04T17:21:47.553Z,3.48
2023-05-04T17:24:20.109Z,3.24
2023-05-04T17:26:51.050Z,3.50
2023-05-04T17:29:26.342Z,3.34
2023-05-04T17:31:56.847Z,3.31
2023-05-04T17:34:27.308Z,3.30
2023-05-04T17:36:57.832Z,3.37
2023-05-04T17:39:30.974Z,3.33
2023-05-04T17:42:01.457Z,3.34
2023-05-04T17:44:33.616Z,3.45
2023-05-04T17:47:04.136Z,3.51
2023-05-04T17:49:34.628Z,3.45
2023-05-04T17:52:05.068Z,3.42
2023-05-04T17:54:37.504Z,3.34
2023-05-04T17:57:08.007Z,2.90
2023-05-04T17:59:38.431Z,3.30
2023-05-04T18:02:08.907Z,3.18
2023-05-04T18:04:39.454Z,3.13
2023-05-04T18:07:09.959Z,3.03
2023-05-04T18:09:42.667Z,2.99
2023-05-04T18:12:13.163Z,3.12
2023-05-04T18:14:43.682Z,3.36
2023-05-04T18:17:14.244Z,3.46
2023-05-04T18:19:44.769Z,3.49
2023-05-04T18:22:15.219Z,3.41
2023-05-04T18:24:50.026Z,3.25
2023-05-04T18:27:20.486Z,2.97
2023-05-04T18:29:51.030Z,2.88
2023-05-04T18:32:21.453Z,2.72
2023-05-04T18:34:53.022Z,2.62
2023-05-04T18:37:23.522Z,2.75
2023-05-04T18:39:55.645Z,2.72
2023-05-04T18:42:26.378Z,2.73
2023-05-04T18:44:57.223Z,2.84
2023-05-04T18:47:27.736Z,2.93
2023-05-04T18:49:58.283Z,3.00
2023-05-04T18:52:28.688Z,3.03
2023-05-04T18:55:00.809Z,3.09
2023-05-04T18:57:31.329Z,3.03
2023-05-04T19:00:01.777Z,3.03
2023-05-04T19:02:32.384Z,3.02
2023-05-04T19:05:02.894Z,2.68
2023-05-04T19:07:33.292Z,2.65
2023-05-04T19:10:05.715Z,2.51
2023-05-04T19:12:36.301Z,2.42
2023-05-04T19:15:07.410Z,2.87
2023-05-04T19:17:37.877Z,2.93
2023-05-04T19:20:09.885Z,2.92
2023-05-04T19:22:40.465Z,3.06
2023-05-04T19:25:23.291Z,3.10
2023-05-04T19:28:09.135Z,3.16
2023-05-04T19:30:39.746Z,3.20
2023-05-04T19:33:10.548Z,3.12
2023-05-04T19:35:41.105Z,3.21
2023-05-04T19:38:11.509Z,3.34
2023-05-04T19:40:43.811Z,3.39
2023-05-04T19:43:14.360Z,3.35
2023-05-04T19:45:45.380Z,3.43
2023-05-04T19:48:18.249Z,3.60
2023-05-04T19:50:48.826Z,3.83
2023-05-04T19:53:19.265Z,4.09
2023-05-04T19:55:53.209Z,4.04
2023-05-04T19:58:26.744Z,4.24
2023-05-04T20:00:57.273Z,4.37
2023-05-04T20:03:27.808Z,4.59
2023-05-04T20:05:58.790Z,4.67
2023-05-04T20:08:29.249Z,4.80
2023-05-04T20:11:01.324Z,4.84
2023-05-04T20:13:31.827Z,5.04
2023-05-04T20:16:02.588Z,5.17
2023-05-04T20:18:32.929Z,5.44
2023-05-04T20:21:03.300Z,5.84
2023-05-04T20:23:33.836Z,6.07
2023-05-04T20:26:06.328Z,6.14
2023-05-04T20:28:36.838Z,6.28
2023-05-04T20:31:08.523Z,6.28
2023-05-04T20:33:39.448Z,6.33
2023-05-04T20:36:14.918Z,6.45
2023-05-04T20:38:45.363Z,6.48
2023-05-04T20:41:17.487Z,6.48
2023-05-04T20:43:48.027Z,6.51
2023-05-04T20:46:18.667Z,6.56
2023-05-04T20:48:49.182Z,6.69
2023-05-04T20:51:19.784Z,6.95
2023-05-04T20:53:50.607Z,7.22
2023-05-04T20:56:22.802Z,7.47
2023-05-04T20:58:53.293Z,7.56
2023-05-04T21:01:23.726Z,7.41
2023-05-04T21:03:54.449Z,7.46
2023-05-04T21:06:25.452Z,7.61
2023-05-04T21:08:56.004Z,7.71
2023-05-04T21:11:28.061Z,7.54
2023-05-04T21:13:58.630Z,7.25
2023-05-04T21:16:29.212Z,7.25
2023-05-04T21:18:59.755Z,7.31
2023-05-04T21:21:30.081Z,7.47
2023-05-04T21:24:01.571Z,7.66
2023-05-04T21:26:33.726Z,7.89
2023-05-04T21:29:04.203Z,8.14
2023-05-04T21:31:35.238Z,8.39
2023-05-04T21:34:05.635Z,8.52
2023-05-04T21:36:36.188Z,8.61
2023-05-04T21:39:06.721Z,8.86
2023-05-04T21:41:38.860Z,8.94
2023-05-04T21:44:09.919Z,9.05
2023-05-04T21:46:40.383Z,9.16
2023-05-04T21:49:10.912Z,9.25
2023-05-04T21:51:44.396Z,9.29
2023-05-04T21:54:14.928Z,9.43
2023-05-04T21:56:46.981Z,9.38
2023-05-04T21:59:17.787Z,9.37
2023-05-04T22:01:48.476Z,9.45
2023-05-04T22:04:18.928Z,9.53
2023-05-04T22:06:49.442Z,9.67
2023-05-04T22:09:19.896Z,9.74
2023-05-04T22:11:52.651Z,9.89
2023-05-04T22:14:27.900Z,9.90
2023-05-04T22:16:59.083Z,9.90
2023-05-04T22:19:30.135Z,9.94
2023-05-04T22:22:00.702Z,10.09
2023-05-04T22:24:31.201Z,10.09
2023-05-04T22:27:04.205Z,10.14
2023-05-04T22:29:37.085Z,10.13
2023-05-04T22:32:08.559Z,10.01
2023-05-04T22:34:38.948Z,10.14
2023-05-04T22:37:09.408Z,10.08
2023-05-04T22:39:39.836Z,10.08
2023-05-04T22:42:11.859Z,10.16
2023-05-04T22:44:42.267Z,10.11
2023-05-04T22:47:12.638Z,10.10
2023-05-04T22:49:43.043Z,10.08
2023-05-04T22:52:13.489Z,10.04
2023-05-04T22:54:44.035Z,10.10
2023-05-04T22:57:16.501Z,9.93
2023-05-04T22:59:46.993Z,10.27
2023-05-04T23:02:20.196Z,10.36
2023-05-04T23:04:50.715Z,10.48
2023-05-04T23:07:21.136Z,10.41
2023-05-04T23:09:51.546Z,10.31
2023-05-04T23:12:23.548Z,10.47
2023-05-04T23:14:54.214Z,10.66
2023-05-04T23:17:24.665Z,10.60
2023-05-04T23:19:55.118Z,10.80
2023-05-04T23:22:25.600Z,11.06
2023-05-04T23:24:56.005Z,11.22
2023-05-04T23:27:28.079Z,11.33
2023-05-04T23:29:58.564Z,11.38
2023-05-04T23:32:29.032Z,11.45
2023-05-04T23:34:59.428Z,11.50
2023-05-04T23:37:32.434Z,11.74
2023-05-04T23:40:03.186Z,11.91
2023-05-04T23:42:35.407Z,11.92
2023-05-04T23:45:05.948Z,11.97
2023-05-04T23:47:36.433Z,12.08
2023-05-04T23:50:07.582Z,12.30
2023-05-04T23:52:38.428Z,12.31
2023-05-04T23:55:09.721Z,12.34
2023-05-04T23:57:41.815Z,12.33
